Time;durP1;ratioP1;P1;durP2;ratioP2;P2;SDS_P1;SDS_P2;PMS_P1;PMS_P2;Temp;Humidity;BMP_temperature;BMP_pressure;BME280_temperature;BME280_humidity;BME280_pressure;Samples;Min_cycle;Max_cycle;Signal;HPM_P1;HPM_P2
2022/09/08 00:02:01;;;;;;;4.22;3.83;;;;;;;17.33;98.53;100387.13;4964135;28;20054;-83
2022/09/08 00:04:29;;;;;;;4.68;3.83;;;;;;;17.27;98.95;100385.56;4950451;28;20030;-85
2022/09/08 00:07:21;;;;;;;8.15;3.17;;;;;;;17.23;99.60;100377.84;4975714;28;20035;-84
2022/09/08 00:09:57;;;;;;;4.25;3.67;;;;;;;17.20;100.00;100386.75;4939321;28;20051;-84
2022/09/08 00:12:27;;;;;;;3.97;3.67;;;;;;;17.20;100.00;100381.47;4966528;28;20047;-83
2022/09/08 00:17:50;;;;;;;4.95;4.40;;;;;;;17.19;100.00;100371.81;4976691;28;20079;-85
2022/09/08 00:20:20;;;;;;;5.30;4.03;;;;;;;17.14;100.00;100376.41;4972200;28;20089;-87
2022/09/08 00:23:18;;;;;;;3.83;3.47;;;;;;;17.10;100.00;100377.47;4972804;28;20047;-86
2022/09/08 00:25:58;;;;;;;6.75;4.57;;;;;;;17.07;100.00;100372.31;4963398;28;20051;-86
2022/09/08 00:28:26;;;;;;;5.68;4.13;;;;;;;17.01;100.00;100373.41;4948640;28;20042;-86
2022/09/08 00:30:54;;;;;;;4.25;3.83;;;;;;;17.02;100.00;100373.34;4952966;28;20043;-85
2022/09/08 00:33:24;;;;;;;5.25;4.75;;;;;;;17.02;100.00;100370.69;4961688;28;20051;-84
2022/09/08 00:35:58;;;;;;;5.40;4.78;;;;;;;17.02;100.00;100354.81;4965932;28;20050;-85
2022/09/08 00:41:23;;;;;;;5.40;4.88;;;;;;;17.02;100.00;100346.03;4967572;28;20374;-86
2022/09/08 00:44:00;;;;;;;3.93;3.67;;;;;;;17.03;100.00;100345.97;4940316;28;20043;-85
2022/09/08 00:46:35;;;;;;;;;;;;;;;17.02;100.00;100343.41;4941623;28;20289;-84
2022/09/08 00:49:16;;;;;;;5.68;5.05;;;;;;;16.98;100.00;100333.88;4958004;28;19957;-85
2022/09/08 00:51:52;;;;;;;3.95;3.50;;;;;;;16.99;100.00;100333.81;4980168;28;20125;-85
2022/09/08 00:54:23;;;;;;;8.07;5.30;;;;;;;17.00;100.00;100339.94;4955594;28;20050;-86
2022/09/08 00:56:50;;;;;;;5.22;4.82;;;;;;;16.97;100.00;100333.03;4964920;28;20638;-85
2022/09/08 00:59:22;;;;;;;5.10;4.70;;;;;;;16.95;100.00;100334.00;4966272;28;20038;-84
2022/09/08 01:01:50;;;;;;;4.78;4.35;;;;;;;16.89;100.00;100336.88;4960758;28;20066;-84
2022/09/08 01:04:17;;;;;;;6.18;5.57;;;;;;;16.86;100.00;100333.41;4978857;28;20098;-83
2022/09/08 01:12:50;;;;;;;5.65;5.15;;;;;;;16.73;100.00;100315.47;4989842;28;20045;-84
2022/09/08 01:15:26;;;;;;;5.72;5.13;;;;;;;16.69;100.00;100312.09;4971447;28;20043;-83
2022/09/08 01:17:56;;;;;;;5.70;5.00;;;;;;;16.65;100.00;100316.63;4959888;28;20055;-84
2022/09/08 01:20:35;;;;;;;5.20;4.73;;;;;;;16.61;100.00;100316.81;4938983;28;20047;-83
2022/09/08 01:23:40;;;;;;;6.70;6.10;;;;;;;16.57;100.00;100324.00;4938387;28;20047;-84
2022/09/08 01:26:49;;;;;;;5.75;4.80;;;;;;;16.54;100.00;100314.44;4973549;28;20513;-84
2022/09/08 01:29:30;;;;;;;6.70;6.10;;;;;;;16.50;100.00;100309.31;4952116;28;20046;-83
2022/09/08 01:32:03;;;;;;;7.03;6.43;;;;;;;16.49;100.00;100312.88;4921614;28;20093;-84
2022/09/08 01:34:45;;;;;;;7.28;6.70;;;;;;;16.48;100.00;100312.00;4965273;28;20050;-83
2022/09/08 01:37:13;;;;;;;6.25;5.75;;;;;;;16.45;100.00;100309.50;4935674;28;20940;-84
2022/09/08 01:39:40;;;;;;;6.70;5.30;;;;;;;16.41;100.00;100305.22;4932606;28;20474;-83
2022/09/08 01:42:08;;;;;;;7.30;5.93;;;;;;;16.38;100.00;100305.38;4943504;28;20050;-84
2022/09/08 01:44:35;;;;;;;7.20;6.55;;;;;;;16.34;100.00;100303.78;4948943;28;20050;-84
2022/09/08 01:47:14;;;;;;;7.15;6.47;;;;;;;16.32;100.00;100305.59;4922003;28;20629;-85
2022/09/08 01:49:40;;;;;;;8.02;7.30;;;;;;;16.30;100.00;100302.16;4935645;28;20753;-84
2022/09/08 01:52:08;;;;;;;8.00;7.20;;;;;;;16.28;100.00;100302.22;4933751;28;20506;-85
2022/09/08 01:54:36;;;;;;;8.70;6.88;;;;;;;16.28;100.00;100307.53;4938951;28;20094;-85
2022/09/08 01:57:03;;;;;;;8.15;6.68;;;;;;;16.26;100.00;100308.50;4946086;28;20054;-84
2022/09/08 01:59:29;;;;;;;7.22;6.57;;;;;;;16.26;100.00;100300.56;4923067;28;20123;-84
2022/09/08 02:01:56;;;;;;;7.75;6.03;;;;;;;16.23;100.00;100290.97;4935491;28;20055;-84
2022/09/08 02:04:26;;;;;;;6.68;6.07;;;;;;;16.21;100.00;100283.09;4955489;28;20082;-84
2022/09/08 02:06:52;;;;;;;7.50;6.65;;;;;;;16.20;100.00;100278.75;4961378;28;20079;-85
2022/09/08 02:09:20;;;;;;;8.10;6.18;;;;;;;16.19;100.00;100277.03;4943541;28;20051;-84
2022/09/08 02:11:49;;;;;;;7.25;6.68;;;;;;;16.16;100.00;100274.47;4926291;28;20055;-85
2022/09/08 02:14:18;;;;;;;9.45;7.22;;;;;;;16.15;100.00;100278.06;4919548;28;20078;-84
2022/09/08 02:16:45;;;;;;;8.75;7.85;;;;;;;16.14;100.00;100281.63;4928786;28;20138;-84
2022/09/08 02:19:13;;;;;;;9.13;7.43;;;;;;;16.11;100.00;100279.06;4925824;28;20051;-84
2022/09/08 02:21:40;;;;;;;11.02;8.55;;;;;;;16.11;100.00;100279.06;4941139;28;20054;-84
2022/09/08 02:24:07;;;;;;;9.23;8.43;;;;;;;16.10;100.00;100269.47;4942347;28;20129;-83
2022/09/08 02:26:37;;;;;;;8.13;7.40;;;;;;;16.09;100.00;100275.66;4944201;28;20216;-82
2022/09/08 02:29:11;;;;;;;9.18;8.18;;;;;;;16.11;100.00;100278.22;4953455;28;20161;-85
2022/09/08 02:31:44;;;;;;;11.73;7.93;;;;;;;16.12;100.00;100277.31;4964964;28;20053;-85
2022/09/08 02:34:11;;;;;;;10.15;8.43;;;;;;;16.09;100.00;100270.38;4947609;28;20508;-85
2022/09/08 02:36:38;;;;;;;8.00;7.22;;;;;;;16.10;100.00;100271.22;4959989;28;20066;-85
2022/09/08 02:39:06;;;;;;;10.48;9.27;;;;;;;16.09;100.00;100262.44;4944200;28;20046;-83
2022/09/08 02:41:36;;;;;;;8.98;8.07;;;;;;;16.12;100.00;100264.13;4944717;28;20058;-84
2022/09/08 02:44:03;;;;;;;9.70;8.70;;;;;;;16.13;100.00;100256.13;4931792;28;20046;-84
2022/09/08 02:46:33;;;;;;;9.75;8.75;;;;;;;16.14;100.00;100265.78;4947164;28;20095;-84
2022/09/08 02:49:01;;;;;;;9.02;8.18;;;;;;;16.14;100.00;100254.34;4964798;28;20066;-83
2022/09/08 02:51:32;;;;;;;11.57;9.38;;;;;;;16.16;100.00;100255.16;4935473;28;20048;-84
2022/09/08 02:54:01;;;;;;;10.57;9.38;;;;;;;16.16;100.00;100252.50;4945829;28;20066;-83
2022/09/08 02:56:32;;;;;;;13.52;10.85;;;;;;;16.17;100.00;100244.53;4948908;28;20050;-83
2022/09/08 02:59:03;;;;;;;10.82;9.82;;;;;;;16.17;100.00;100251.59;4969723;28;20057;-83
2022/09/08 03:01:31;;;;;;;13.95;11.35;;;;;;;16.18;100.00;100255.97;4952977;28;20070;-85
2022/09/08 03:03:59;;;;;;;14.13;9.88;;;;;;;16.20;100.00;100262.91;4965794;28;20055;-83
2022/09/08 03:06:31;;;;;;;12.77;10.23;;;;;;;16.21;100.00;100255.84;4956201;28;20047;-84
2022/09/08 03:09:04;;;;;;;11.32;9.63;;;;;;;16.20;100.00;100260.28;4975873;28;20050;-84
2022/09/08 03:11:31;;;;;;;15.07;10.52;;;;;;;16.21;100.00;100258.47;4955066;28;20054;-83
2022/09/08 03:16:44;;;;;;;14.15;11.70;;;;;;;16.24;100.00;100234.56;4958166;28;20592;-84
2022/09/08 03:19:11;;;;;;;12.30;11.18;;;;;;;16.26;100.00;100245.09;4966097;28;21364;-83
2022/09/08 03:21:37;;;;;;;17.33;13.23;;;;;;;16.27;100.00;100242.41;4931756;28;20054;-82
2022/09/08 03:24:04;;;;;;;14.45;12.93;;;;;;;16.28;100.00;100251.16;4943701;28;20401;-83
2022/09/08 03:26:31;;;;;;;19.05;13.73;;;;;;;16.28;100.00;100245.88;4945533;28;21501;-84
2022/09/08 03:28:58;;;;;;;18.08;13.60;;;;;;;16.25;100.00;100236.31;4942599;28;20061;-86
2022/09/08 03:31:25;;;;;;;14.50;12.40;;;;;;;16.24;100.00;100239.84;4950466;28;20055;-83
2022/09/08 03:33:53;;;;;;;16.77;13.88;;;;;;;16.24;100.00;100244.28;4961553;28;20057;-83
2022/09/08 03:36:20;;;;;;;17.98;12.65;;;;;;;16.25;100.00;100243.38;4953373;28;20039;-82
2022/09/08 03:38:47;;;;;;;15.35;12.40;;;;;;;16.25;100.00;100243.38;4946859;28;20041;-82
2022/09/08 03:41:16;;;;;;;17.55;13.85;;;;;;;16.25;100.00;100241.59;4944872;28;20122;-83
2022/09/08 03:43:49;;;;;;;19.40;16.40;;;;;;;16.24;100.00;100234.56;4945638;28;20047;-83
2022/09/08 03:46:17;;;;;;;15.20;13.05;;;;;;;16.24;100.00;100226.66;4945444;28;20089;-82
2022/09/08 03:48:44;;;;;;;17.10;15.27;;;;;;;16.23;100.00;100221.44;4924780;28;20036;-82
2022/09/08 03:51:22;;;;;;;16.67;13.70;;;;;;;16.19;100.00;100211.00;4909679;28;20058;-83
2022/09/08 03:54:46;;;;;;;17.02;13.23;;;;;;;16.20;100.00;100214.50;4909513;28;20043;-81
2022/09/08 03:56:47;;;;;;;16.48;13.90;;;;;;;16.19;100.00;100203.09;4926642;28;20121;-82
2022/09/08 03:59:16;;;;;;;13.68;12.25;;;;;;;16.19;100.00;100200.44;4931240;28;20777;-82
2022/09/08 04:01:43;;;;;;;16.75;12.82;;;;;;;16.19;100.00;100197.81;4926918;28;20086;-83
2022/09/08 04:04:14;;;;;;;17.42;13.23;;;;;;;16.23;100.00;100197.66;4927765;28;20053;-83
2022/09/08 04:06:42;;;;;;;15.32;13.73;;;;;;;16.22;100.00;100191.53;4931110;28;20060;-83
2022/09/08 04:09:10;;;;;;;15.70;14.10;;;;;;;16.24;100.00;100180.91;4914121;28;20043;-83
2022/09/08 04:11:37;;;;;;;17.05;13.80;;;;;;;16.27;100.00;100188.69;4928416;28;20050;-83
2022/09/08 04:14:04;;;;;;;17.60;15.77;;;;;;;16.30;100.00;100180.66;4958473;28;20047;-83
2022/09/08 04:16:30;;;;;;;15.98;14.25;;;;;;;16.33;100.00;100180.53;4933275;28;20023;-82
2022/09/08 04:18:57;;;;;;;16.90;13.10;;;;;;;16.34;100.00;100163.78;4944952;28;20050;-81
2022/09/08 04:21:24;;;;;;;16.23;13.90;;;;;;;16.34;100.00;100161.97;4940059;28;20055;-83
2022/09/08 04:23:51;;;;;;;17.02;15.25;;;;;;;16.34;100.00;100161.97;4943264;28;20027;-82
2022/09/08 04:26:18;;;;;;;22.92;16.10;;;;;;;16.33;100.00;100148.84;4932811;28;20043;-82
2022/09/08 04:28:47;;;;;;;17.65;15.45;;;;;;;16.32;100.00;100141.84;4947611;28;20043;-82
2022/09/08 04:31:16;;;;;;;20.33;17.48;;;;;;;16.31;100.00;100140.09;4944408;28;20047;-82
2022/09/08 04:33:43;;;;;;;21.50;17.17;;;;;;;16.32;100.00;100129.50;4941863;28;20039;-83
2022/09/08 04:36:15;;;;;;;23.30;19.33;;;;;;;16.33;100.00;100125.91;4925244;29;20049;-83
2022/09/08 04:38:42;;;;;;;24.85;19.52;;;;;;;16.37;100.00;100116.97;4938960;28;20117;-83
2022/09/08 04:41:13;;;;;;;28.15;21.00;;;;;;;16.43;100.00;100128.19;4932259;28;20484;-82
2022/09/08 04:43:40;;;;;;;23.17;20.13;;;;;;;16.46;100.00;100125.41;4920005;28;20055;-82
2022/09/08 04:46:15;;;;;;;30.80;20.80;;;;;;;16.48;100.00;100126.22;4933353;29;20735;-82
2022/09/08 04:48:44;;;;;;;27.58;22.10;;;;;;;16.49;100.00;100120.88;4912096;28;20047;-84
2022/09/08 04:51:14;;;;;;;25.77;20.30;;;;;;;16.51;100.00;100132.22;4944137;28;20543;-82
2022/09/08 04:53:41;;;;;;;26.60;19.50;;;;;;;16.50;100.00;100133.16;4929759;28;20113;-82
2022/09/08 04:56:10;;;;;;;24.40;18.55;;;;;;;16.52;100.00;100135.75;4932137;28;20047;-82
2022/09/08 04:58:41;;;;;;;24.67;19.88;;;;;;;16.53;100.00;100132.16;4930789;28;20748;-83
2022/09/08 05:01:15;;;;;;;28.23;21.48;;;;;;;16.54;100.00;100131.22;4933057;28;20791;-83
2022/09/08 05:03:42;;;;;;;21.50;18.10;;;;;;;16.57;100.00;100144.34;4950680;28;20055;-82
2022/09/08 05:06:17;;;;;;;22.25;16.13;;;;;;;16.58;100.00;100140.75;4920002;28;20126;-83
2022/09/08 05:09:00;;;;;;;24.38;18.73;;;;;;;16.60;100.00;100138.06;4922772;28;20059;-83
2022/09/08 05:11:31;;;;;;;20.73;17.95;;;;;;;16.59;100.00;100133.69;4947596;28;20051;-82
2022/09/08 05:13:58;;;;;;;26.63;20.08;;;;;;;16.57;100.00;100144.34;4904004;28;20055;-82
2022/09/08 05:16:31;;;;;;;20.00;15.85;;;;;;;16.57;100.00;100149.63;4917146;28;20047;-82
2022/09/08 05:19:06;;;;;;;26.33;19.38;;;;;;;16.54;100.00;100147.09;4930653;28;20051;-83
2022/09/08 05:21:36;;;;;;;23.10;16.73;;;;;;;16.49;100.00;100147.28;4952965;28;20430;-83
2022/09/08 05:26:48;;;;;;;22.10;17.08;;;;;;;16.48;100.00;100144.72;4933989;28;20077;-82
2022/09/08 05:29:28;;;;;;;22.35;17.38;;;;;;;16.52;100.00;100152.44;4933854;28;20166;-84
2022/09/08 05:31:57;;;;;;;23.70;17.77;;;;;;;16.54;100.00;100152.38;4932482;28;20039;-83
2022/09/08 05:34:27;;;;;;;26.45;18.13;;;;;;;16.56;100.00;100149.66;4900382;28;20073;-83
2022/09/08 05:36:56;;;;;;;23.13;17.38;;;;;;;16.57;100.00;100143.44;4933131;28;20176;-83
2022/09/08 05:39:22;;;;;;;22.67;18.92;;;;;;;16.54;100.00;100142.69;4915786;28;20047;-83
2022/09/08 05:41:51;;;;;;;24.17;18.75;;;;;;;16.55;100.00;100148.81;4931356;28;20055;-83
2022/09/08 05:44:18;;;;;;;21.65;19.30;;;;;;;16.52;100.00;100144.50;4924460;28;20074;-83
2022/09/08 05:46:48;;;;;;;26.52;20.35;;;;;;;16.52;100.00;100143.66;4933694;28;20091;-84
2022/09/08 05:49:16;;;;;;;22.48;19.52;;;;;;;16.51;100.00;100139.28;4914461;28;20047;-83
2022/09/08 05:51:47;;;;;;;25.42;21.15;;;;;;;16.45;100.00;100144.81;4914308;28;20146;-82
2022/09/08 05:54:15;;;;;;;22.08;19.42;;;;;;;16.46;100.00;100134.19;4911950;28;20134;-83
2022/09/08 05:56:41;;;;;;;22.17;18.50;;;;;;;16.47;100.00;100121.84;4920041;28;20090;-83
2022/09/08 05:59:11;;;;;;;22.30;18.85;;;;;;;16.50;100.00;100127.88;4926641;28;20058;-82
2022/09/08 06:01:37;;;;;;;23.88;18.70;;;;;;;16.51;100.00;100129.56;4939305;28;20047;-83
2022/09/08 06:04:05;;;;;;;31.30;19.70;;;;;;;16.51;100.00;100121.66;4932682;28;20614;-85
2022/09/08 06:06:34;;;;;;;21.80;18.73;;;;;;;16.53;100.00;100119.81;4937510;29;20524;-85
2022/09/08 06:09:12;;;;;;;27.17;20.48;;;;;;;16.53;100.00;100122.47;4936715;29;20063;-84
2022/09/08 06:11:41;;;;;;;17.95;16.05;;;;;;;16.53;100.00;100121.56;4924103;28;21151;-86
2022/09/08 06:14:07;;;;;;;25.55;18.60;;;;;;;16.53;100.00;100122.47;4922117;28;20130;-83
2022/09/08 06:16:38;;;;;;;24.45;19.13;;;;;;;16.50;100.00;100121.72;4936456;28;20078;-84
2022/09/08 06:19:12;;;;;;;20.17;17.90;;;;;;;16.54;100.00;100115.38;4919075;29;20065;-84
2022/09/08 06:22:02;;;;;;;33.30;29.00;;;;;;;16.57;100.00;100125.84;4937462;28;20055;-84
2022/09/08 06:24:42;;;;;;;21.13;18.33;;;;;;;16.57;100.00;100122.31;4913747;28;20067;-83
2022/09/08 06:27:43;;;;;;;23.53;18.10;;;;;;;16.53;100.00;100126.88;4940274;28;20130;-84
2022/09/08 06:30:19;;;;;;;18.88;16.88;;;;;;;16.57;100.00;100135.53;4936262;28;20058;-82
2022/09/08 06:32:58;;;;;;;24.92;18.40;;;;;;;16.52;100.00;100138.38;4901396;28;20505;-83
2022/09/08 06:35:42;;;;;;;23.27;19.08;;;;;;;16.47;100.00;100130.63;4914316;28;20055;-85
2022/09/08 06:38:44;;;;;;;20.23;18.13;;;;;;;16.43;100.00;100144.91;4925441;28;20110;-84
2022/09/08 06:41:22;;;;;;;24.17;19.65;;;;;;;16.44;100.00;100138.69;4923512;28;20057;-87
2022/09/08 06:44:02;;;;;;;20.02;17.92;;;;;;;16.47;100.00;100143.84;4925429;28;20055;-85
2022/09/08 06:46:41;;;;;;;23.75;20.67;;;;;;;16.58;100.00;100142.53;4947085;28;20027;-85
2022/09/08 06:49:11;;;;;;;25.90;20.33;;;;;;;16.66;100.00;100132.50;4943957;28;20050;-85
2022/09/08 06:52:00;;;;;;;28.85;21.60;;;;;;;16.79;100.00;100133.72;4951161;28;20182;-84
2022/09/08 06:54:55;;;;;;;22.23;19.65;;;;;;;16.85;100.00;100128.13;4942407;28;20062;-84
2022/09/08 06:58:17;;;;;;;25.25;20.10;;;;;;;16.98;100.00;100123.19;4938562;28;20054;-84
2022/09/08 07:01:01;;;;;;;25.15;19.98;;;;;;;17.08;100.00;100113.09;4936250;28;20055;-83
2022/09/08 07:04:26;;;;;;;25.00;20.77;;;;;;;17.09;100.00;100106.88;4931902;28;20062;-85
2022/09/08 07:07:12;;;;;;;20.73;18.55;;;;;;;17.15;100.00;100103.94;4935845;28;20134;-85
2022/09/08 07:10:25;;;;;;;23.42;19.75;;;;;;;17.19;100.00;100099.38;4919738;28;20110;-83
2022/09/08 07:13:09;;;;;;;22.80;18.85;;;;;;;17.22;100.00;100101.03;4931139;28;20122;-83
2022/09/08 07:16:08;;;;;;;24.17;20.13;;;;;;;17.25;100.00;100085.00;4932300;28;20134;-85
2022/09/08 07:19:01;;;;;;;25.45;20.10;;;;;;;17.23;100.00;100095.66;4912129;28;20062;-84
2022/09/08 07:21:51;;;;;;;24.65;21.15;;;;;;;17.13;100.00;100097.00;4927053;28;20051;-84
2022/09/08 07:24:25;;;;;;;31.00;22.92;;;;;;;17.16;100.00;100097.72;4926040;28;20680;-85
2022/09/08 07:26:57;;;;;;;22.80;19.88;;;;;;;17.12;100.00;100100.59;4916458;28;20716;-84
2022/09/08 07:29:38;;;;;;;23.25;19.00;;;;;;;17.20;100.00;100103.75;4935154;28;20465;-83
2022/09/08 07:32:16;;;;;;;31.77;21.67;;;;;;;17.23;100.00;100108.88;4929330;28;20043;-86
2022/09/08 07:35:05;;;;;;;24.17;21.08;;;;;;;17.18;100.00;100105.59;4944747;28;20071;-83
2022/09/08 07:37:47;;;;;;;23.13;20.67;;;;;;;17.22;100.00;100099.22;4931985;28;20055;-84
2022/09/08 07:40:35;;;;;;;27.80;22.38;;;;;;;17.30;100.00;100098.88;4921310;28;20055;-83
2022/09/08 07:46:30;;;;;;;22.50;19.10;;;;;;;17.45;100.00;100095.53;4963736;28;20062;-83
2022/09/08 07:49:08;;;;;;;22.77;19.52;;;;;;;17.58;100.00;100090.50;4972956;28;20070;-85
2022/09/08 07:52:09;;;;;;;23.58;19.88;;;;;;;17.59;100.00;100091.41;4955324;28;20046;-85
2022/09/08 07:55:29;;;;;;;21.98;19.50;;;;;;;17.56;100.00;100083.56;4947494;28;20114;-85
2022/09/08 07:58:30;;;;;;;25.77;21.10;;;;;;;17.53;100.00;100089.88;4959562;28;20064;-85
2022/09/08 08:01:36;;;;;;;25.40;19.30;;;;;;;17.46;100.00;100084.00;4962696;28;20106;-84
2022/09/08 08:04:59;;;;;;;20.45;18.08;;;;;;;17.50;100.00;100093.53;4959261;28;20042;-86
2022/09/08 08:08:18;;;;;;;20.23;18.08;;;;;;;17.63;100.00;100092.97;4966894;28;20098;-84
2022/09/08 08:11:03;;;;;;;21.85;17.45;;;;;;;17.78;100.00;100099.28;4963966;28;20045;-83
2022/09/08 08:13:53;;;;;;;22.20;17.67;;;;;;;17.89;100.00;100089.06;4935466;28;20066;-83
2022/09/08 08:16:38;;;;;;;21.65;16.38;;;;;;;17.91;100.00;100088.97;4947304;28;20063;-84
2022/09/08 08:19:45;;;;;;;19.02;16.35;;;;;;;18.00;100.00;100093.84;4931448;28;20043;-84
2022/09/08 08:22:34;;;;;;;18.27;14.00;;;;;;;17.94;100.00;100097.66;4942544;28;20051;-83
2022/09/08 08:25:07;;;;;;;21.60;17.83;;;;;;;17.97;100.00;100091.38;4940896;28;20047;-84
2022/09/08 08:27:45;;;;;;;18.40;16.05;;;;;;;17.93;100.00;100089.81;4955683;28;20078;-84
2022/09/08 08:30:21;;;;;;;15.88;14.23;;;;;;;17.89;100.00;100098.81;4938440;28;20509;-84
2022/09/08 08:33:11;;;;;;;17.25;14.18;;;;;;;17.95;100.00;100093.22;4921337;28;20071;-84
2022/09/08 08:36:24;;;;;;;15.63;12.73;;;;;;;18.04;100.00;100091.91;4928974;28;20070;-83
2022/09/08 08:39:17;;;;;;;15.27;13.68;;;;;;;18.05;100.00;100097.13;4959664;28;20315;-84
2022/09/08 08:42:05;;;;;;;14.25;12.77;;;;;;;18.13;100.00;100102.06;4953308;28;20074;-84
2022/09/08 08:45:34;;;;;;;14.38;11.93;;;;;;;18.17;100.00;100101.84;4948729;28;20059;-84
2022/09/08 08:48:40;;;;;;;16.35;14.65;;;;;;;18.23;100.00;100105.97;4919060;28;20039;-84
2022/09/08 08:52:02;;;;;;;13.75;12.38;;;;;;;18.17;100.00;100101.84;4919641;28;20942;-84
2022/09/08 08:54:49;;;;;;;20.33;13.95;;;;;;;18.20;100.00;100116.72;4951036;28;20058;-85
2022/09/08 08:57:45;;;;;;;15.73;12.27;;;;;;;18.24;100.00;100112.13;4920291;28;20057;-84
2022/09/08 09:00:29;;;;;;;14.48;12.65;;;;;;;18.34;100.00;100116.03;4947551;28;20047;-84
2022/09/08 09:03:35;;;;;;;16.08;13.38;;;;;;;18.40;100.00;100120.19;4959503;28;20067;-86
2022/09/08 09:06:59;;;;;;;13.68;12.38;;;;;;;18.53;100.00;100113.31;4962030;28;20043;-85
2022/09/08 09:09:58;;;;;;;16.92;11.80;;;;;;;18.63;100.00;100103.97;4935828;28;20047;-83
2022/09/08 09:13:13;;;;;;;13.32;10.50;;;;;;;18.83;100.00;100104.72;4932569;28;20054;-84
2022/09/08 09:16:25;;;;;;;12.23;11.02;;;;;;;19.06;100.00;100102.66;4916320;28;20059;-83
2022/09/08 09:19:47;;;;;;;17.30;10.38;;;;;;;19.21;97.50;100101.00;4930663;28;20173;-85
2022/09/08 09:22:51;;;;;;;15.85;10.63;;;;;;;19.26;95.65;100106.94;4928762;28;20058;-84
2022/09/08 09:25:39;;;;;;;11.50;10.05;;;;;;;19.32;93.56;100098.59;4930228;28;20043;-84
2022/09/08 09:28:39;;;;;;;13.95;10.43;;;;;;;19.28;93.88;100094.41;4925019;28;20126;-84
2022/09/08 09:31:52;;;;;;;12.38;10.40;;;;;;;19.24;95.73;100087.56;4911674;28;20051;-83
2022/09/08 09:34:35;;;;;;;10.75;7.85;;;;;;;19.28;94.68;100083.81;4942202;28;20553;-84
2022/09/08 09:37:58;;;;;;;8.52;7.70;;;;;;;19.33;93.88;100082.63;4943869;28;20122;-85
2022/09/08 09:41:02;;;;;;;8.98;8.07;;;;;;;19.33;95.43;100092.38;4897166;28;20059;-84
2022/09/08 09:44:02;;;;;;;10.13;8.13;;;;;;;19.26;95.30;100101.63;4925929;28;20043;-85
2022/09/08 09:47:04;;;;;;;9.25;8.35;;;;;;;19.27;95.61;100116.63;4938830;28;20757;-86
2022/09/08 09:50:00;;;;;;;10.50;9.40;;;;;;;19.23;95.84;100123.00;4944605;28;20051;-84
2022/09/08 09:53:04;;;;;;;11.48;9.07;;;;;;;19.21;96.87;100122.25;4928302;28;20122;-84
2022/09/08 09:56:23;;;;;;;11.93;10.60;;;;;;;19.09;97.36;100124.59;4945652;28;20066;-84
2022/09/08 09:59:35;;;;;;;9.02;8.10;;;;;;;19.08;98.46;100116.72;4963286;28;20039;-84
2022/09/08 10:02:15;;;;;;;8.88;7.95;;;;;;;19.08;98.41;100117.56;4954280;28;20081;-84
2022/09/08 10:05:14;;;;;;;8.50;7.70;;;;;;;19.03;99.38;100126.72;4956346;28;20062;-84
2022/09/08 10:08:42;;;;;;;10.57;7.72;;;;;;;18.97;100.00;100119.94;4946181;28;20054;-85
2022/09/08 10:11:55;;;;;;;7.72;6.78;;;;;;;18.83;98.80;100126.78;4946197;28;20095;-84
2022/09/08 10:14:53;;;;;;;9.88;6.60;;;;;;;18.65;100.00;100128.59;4926517;28;20069;-84
2022/09/08 10:17:56;;;;;;;7.63;6.13;;;;;;;18.44;100.00;100127.88;4946396;28;20141;-83
2022/09/08 10:20:56;;;;;;;7.15;6.45;;;;;;;18.31;100.00;100129.44;4944905;28;20133;-84
2022/09/08 10:23:57;;;;;;;7.25;6.45;;;;;;;18.22;100.00;100128.09;4944458;28;20085;-85
2022/09/08 10:26:52;;;;;;;7.30;6.38;;;;;;;18.21;100.00;100133.47;4944667;28;20046;-85
2022/09/08 10:30:02;;;;;;;8.27;5.95;;;;;;;18.20;100.00;100127.31;4961709;28;20819;-85
2022/09/08 10:33:28;;;;;;;7.28;6.68;;;;;;;18.15;100.00;100132.00;4930882;28;20051;-84
2022/09/08 10:36:08;;;;;;;12.13;7.25;;;;;;;18.02;100.00;100129.09;4914771;28;20062;-84
2022/09/08 10:38:58;;;;;;;8.68;7.70;;;;;;;18.05;100.00;100112.19;4944107;28;20038;-83
2022/09/08 10:42:09;;;;;;;7.65;6.95;;;;;;;18.06;100.00;100120.03;4963031;28;20058;-85
2022/09/08 10:44:58;;;;;;;8.48;7.65;;;;;;;18.04;100.00;100123.69;4963138;28;20490;-85
2022/09/08 10:48:08;;;;;;;7.95;7.00;;;;;;;18.05;100.00;100120.13;4933594;28;20054;-84
2022/09/08 10:50:53;;;;;;;8.27;7.55;;;;;;;18.05;100.00;100113.03;4969639;28;20046;-84
2022/09/08 10:54:23;;;;;;;8.32;7.60;;;;;;;18.08;100.00;100104.06;4950257;28;20054;-82
2022/09/08 10:56:50;;;;;;;8.63;7.68;;;;;;;18.07;100.00;100097.06;4926006;28;20054;-83
2022/09/08 11:00:00;;;;;;;10.63;6.80;;;;;;;18.06;100.00;100101.50;4942065;28;20055;-82
2022/09/08 11:02:57;;;;;;;7.30;6.60;;;;;;;17.97;100.00;100101.97;4978362;28;20027;-83
2022/09/08 11:05:59;;;;;;;8.93;7.95;;;;;;;18.01;100.00;100092.94;4965747;28;20129;-84
2022/09/08 11:08:50;;;;;;;8.88;8.02;;;;;;;18.04;100.00;100097.22;4968240;28;20066;-84
2022/09/08 11:12:17;;;;;;;9.70;7.65;;;;;;;17.94;100.00;100104.75;4987351;28;20077;-85
2022/09/08 11:15:44;;;;;;;9.75;7.80;;;;;;;17.89;100.00;100099.66;4969217;28;20118;-85
2022/09/08 11:22:32;;;;;;;7.63;6.80;;;;;;;17.92;100.00;100103.94;4987156;28;20082;-85
2022/09/08 11:26:00;;;;;;;9.85;8.13;;;;;;;17.94;100.00;100102.09;4963314;28;20784;-85
2022/09/08 11:28:57;;;;;;;8.60;7.75;;;;;;;18.04;100.00;100100.72;4962170;28;20803;-85
2022/09/08 11:32:20;;;;;;;8.88;8.10;;;;;;;18.14;100.00;100096.69;4958470;28;20138;-84
2022/09/08 11:35:31;;;;;;;8.57;7.72;;;;;;;18.16;100.00;100101.91;4972909;28;20059;-85
2022/09/08 11:38:19;;;;;;;9.43;8.25;;;;;;;18.02;100.00;100111.38;4938734;28;20046;-85
2022/09/08 11:41:17;;;;;;;9.68;8.70;;;;;;;17.93;100.00;100109.19;4939322;28;20055;-85
2022/09/08 11:44:19;;;;;;;8.63;7.82;;;;;;;17.83;100.00;100114.06;4934587;28;20082;-85
2022/09/08 11:47:46;;;;;;;9.35;8.20;;;;;;;17.77;100.00;100113.47;4939164;28;20101;-85
2022/09/08 11:50:54;;;;;;;8.52;7.82;;;;;;;17.61;100.00;100115.97;4955955;28;20056;-86
2022/09/08 11:53:53;;;;;;;9.13;8.10;;;;;;;17.55;100.00;100116.25;4972645;28;20062;-84
2022/09/08 11:56:54;;;;;;;10.27;8.40;;;;;;;17.52;100.00;100120.78;4965505;28;20039;-84
2022/09/08 11:59:57;;;;;;;7.38;6.78;;;;;;;17.58;100.00;100121.44;4993791;28;20126;-84
2022/09/08 12:03:04;;;;;;;5.57;5.18;;;;;;;17.63;100.00;100117.63;4970184;28;20654;-85
2022/09/08 12:05:50;;;;;;;7.00;6.40;;;;;;;17.64;100.00;100126.44;4987364;28;20042;-85
2022/09/08 12:09:06;;;;;;;11.50;8.18;;;;;;;17.61;100.00;100123.91;4960141;28;20050;-84
2022/09/08 12:12:21;;;;;;;7.13;6.53;;;;;;;17.52;100.00;100127.84;4970789;28;20059;-87
2022/09/08 12:15:14;;;;;;;7.95;6.82;;;;;;;17.45;100.00;100127.28;4963134;28;20050;-84
2022/09/08 12:18:04;;;;;;;7.05;6.15;;;;;;;17.47;100.00;100121.91;4958240;28;20138;-86
2022/09/08 12:21:14;;;;;;;8.90;6.75;;;;;;;17.48;100.00;100123.63;4968361;28;20058;-87
2022/09/08 12:24:33;;;;;;;5.70;5.20;;;;;;;17.44;100.00;100125.59;4966905;28;20065;-85
2022/09/08 12:27:25;;;;;;;5.65;5.13;;;;;;;17.42;100.00;100130.06;4949654;28;20878;-84
2022/09/08 12:30:05;;;;;;;5.88;5.38;;;;;;;17.38;100.00;100128.50;4954719;28;20058;-84
2022/09/08 12:33:04;;;;;;;6.53;5.30;;;;;;;17.40;100.00;100128.44;4946609;28;20055;-83
2022/09/08 12:35:36;;;;;;;6.10;5.47;;;;;;;17.39;100.00;100132.88;4950140;28;20054;-83
2022/09/08 12:39:08;;;;;;;5.00;4.60;;;;;;;17.37;100.00;100118.84;4965147;28;20054;-82
2022/09/08 12:41:49;;;;;;;3.75;3.55;;;;;;;17.39;100.00;100122.28;4963885;28;20042;-84
2022/09/08 12:45:00;;;;;;;4.85;4.38;;;;;;;17.38;100.00;100119.69;4945968;28;20055;-84
2022/09/08 12:48:05;;;;;;;3.35;3.13;;;;;;;17.36;100.00;100115.34;4964638;28;20068;-84
2022/09/08 12:51:01;;;;;;;4.90;4.50;;;;;;;17.39;100.00;100114.34;4964647;28;20051;-86